createdAt,value
2018-04-08T00:01:19.263Z,8.65
2018-04-08T00:03:47.682Z,8.77
2018-04-08T00:06:16.126Z,8.59
2018-04-08T00:08:44.608Z,8.29
2018-04-08T00:11:13.008Z,8.05
2018-04-08T00:13:41.413Z,8.07
2018-04-08T00:16:09.861Z,8.26
2018-04-08T00:18:38.316Z,7.73
2018-04-08T00:21:06.756Z,8.29
2018-04-08T00:23:35.207Z,8.05
2018-04-08T00:26:03.628Z,8.04
2018-04-08T00:28:32.081Z,8.05
2018-04-08T00:31:00.528Z,7.88
2018-04-08T00:33:28.927Z,8.05
2018-04-08T00:35:57.377Z,7.47
2018-04-08T00:38:25.849Z,7.84
2018-04-08T00:40:54.266Z,7.50
2018-04-08T00:43:22.715Z,7.64
2018-04-08T00:45:51.214Z,7.53
2018-04-08T00:48:19.637Z,7.74
2018-04-08T00:50:48.055Z,7.80
2018-04-08T00:53:16.590Z,7.89
2018-04-08T00:55:44.972Z,7.82
2018-04-08T00:58:13.130Z,7.82
2018-04-08T01:00:41.368Z,7.88
2018-04-08T01:03:09.478Z,7.68
2018-04-08T01:05:37.649Z,7.47
2018-04-08T01:08:05.880Z,7.85
2018-04-08T01:10:34.041Z,6.84
2018-04-08T01:13:02.565Z,7.80
2018-04-08T01:15:31.028Z,7.74
2018-04-08T01:17:59.178Z,7.79
2018-04-08T01:20:27.621Z,7.68
2018-04-08T01:22:56.097Z,7.59
2018-04-08T01:25:24.484Z,7.57
2018-04-08T01:27:52.936Z,7.72
2018-04-08T01:30:21.398Z,7.44
2018-04-08T01:32:49.824Z,7.67
2018-04-08T01:35:18.360Z,7.43
2018-04-08T01:37:46.738Z,7.10
2018-04-08T01:40:15.194Z,7.44
2018-04-08T01:42:43.669Z,7.51
2018-04-08T01:45:12.125Z,7.43
2018-04-08T01:47:40.562Z,7.51
2018-04-08T01:50:09.061Z,7.49
2018-04-08T01:52:37.456Z,6.99
2018-04-08T01:55:05.841Z,7.33
2018-04-08T01:57:34.224Z,7.20
2018-04-08T02:00:02.697Z,6.84
2018-04-08T02:02:31.146Z,6.98
2018-04-08T02:04:59.563Z,7.15
2018-04-08T02:07:28.022Z,6.96
2018-04-08T02:09:56.440Z,7.13
2018-04-08T02:12:24.866Z,7.00
2018-04-08T02:14:53.305Z,6.98
2018-04-08T02:17:21.753Z,6.68
2018-04-08T02:19:50.142Z,6.94
2018-04-08T02:22:18.572Z,6.52
2018-04-08T02:24:47.060Z,5.93
2018-04-08T02:27:15.496Z,6.92
2018-04-08T02:29:43.990Z,6.80
2018-04-08T02:32:12.404Z,6.36
2018-04-08T02:34:40.851Z,6.37
2018-04-08T02:37:09.472Z,6.67
2018-04-08T02:39:37.987Z,6.43
2018-04-08T02:42:06.435Z,6.00
2018-04-08T02:44:34.817Z,6.75
2018-04-08T02:47:03.249Z,6.81
2018-04-08T02:49:31.669Z,6.74
2018-04-08T02:52:00.133Z,6.70
2018-04-08T02:54:28.678Z,6.79
2018-04-08T02:56:57.184Z,6.70
2018-04-08T02:59:25.580Z,6.81
2018-04-08T03:01:54.137Z,6.84
2018-04-08T03:04:22.559Z,6.73
2018-04-08T03:06:51.019Z,6.93
2018-04-08T03:09:19.490Z,6.87
2018-04-08T03:11:47.876Z,6.62
2018-04-08T03:14:16.275Z,6.63
2018-04-08T03:16:44.695Z,6.74
2018-04-08T03:19:13.091Z,6.78
2018-04-08T03:21:41.537Z,6.50
2018-04-08T03:24:09.944Z,6.38
2018-04-08T03:26:38.397Z,6.13
2018-04-08T03:29:06.832Z,5.93
2018-04-08T03:31:35.310Z,6.27
2018-04-08T03:34:03.710Z,6.60
2018-04-08T03:36:32.320Z,6.61
2018-04-08T03:39:00.768Z,6.53
2018-04-08T03:41:29.220Z,6.63
2018-04-08T03:43:57.873Z,6.78
2018-04-08T03:46:26.281Z,6.80
2018-04-08T03:48:54.755Z,6.34
2018-04-08T03:51:23.224Z,6.69
2018-04-08T03:53:51.648Z,6.62
2018-04-08T03:56:20.100Z,6.54
2018-04-08T03:58:48.499Z,6.64
2018-04-08T04:01:16.923Z,6.70
2018-04-08T04:03:45.353Z,6.58
2018-04-08T04:06:13.797Z,6.39
2018-04-08T04:08:42.253Z,6.60
2018-04-08T04:11:10.763Z,6.01
2018-04-08T04:13:39.221Z,6.58
2018-04-08T04:16:07.656Z,6.53
2018-04-08T04:18:47.882Z,6.54
2018-04-08T04:24:39.354Z,6.58
2018-04-08T04:27:07.735Z,6.75
2018-04-08T04:29:36.194Z,6.82
2018-04-08T04:32:04.605Z,6.88
2018-04-08T04:34:33.085Z,7.12
2018-04-08T04:37:01.532Z,7.10
2018-04-08T04:39:29.951Z,7.00
2018-04-08T04:41:58.472Z,7.11
2018-04-08T04:44:26.912Z,7.10
2018-04-08T04:46:55.297Z,7.35
2018-04-08T04:49:23.717Z,7.51
2018-04-08T04:51:52.122Z,7.74
2018-04-08T04:54:20.578Z,7.84
2018-04-08T04:56:49.010Z,7.65
2018-04-08T04:59:17.384Z,8.03
2018-04-08T05:01:45.832Z,8.17
2018-04-08T05:04:14.377Z,8.22
2018-04-08T05:06:42.828Z,8.38
2018-04-08T05:09:11.233Z,8.25
2018-04-08T05:11:39.661Z,8.72
2018-04-08T05:14:08.093Z,8.89
2018-04-08T05:16:36.478Z,9.06
2018-04-08T05:19:04.929Z,9.21
2018-04-08T05:21:33.329Z,9.38
2018-04-08T05:24:01.912Z,9.58
2018-04-08T05:26:30.330Z,9.94
2018-04-08T05:28:58.712Z,9.74
2018-04-08T05:31:27.280Z,10.51
2018-04-08T05:33:55.739Z,10.63
2018-04-08T05:36:24.215Z,10.75
2018-04-08T05:38:52.608Z,11.21
2018-04-08T05:41:21.097Z,11.45
2018-04-08T05:43:49.500Z,11.67
2018-04-08T05:46:17.984Z,11.81
2018-04-08T05:48:46.435Z,11.98
2018-04-08T05:51:14.923Z,12.18
2018-04-08T05:53:43.439Z,12.00
2018-04-08T05:56:11.861Z,12.13
2018-04-08T05:58:40.300Z,12.11
2018-04-08T06:01:08.702Z,12.01
2018-04-08T06:03:37.175Z,12.26
2018-04-08T06:06:05.585Z,12.35
2018-04-08T06:08:33.972Z,12.30
2018-04-08T06:11:02.454Z,12.58
2018-04-08T06:13:30.856Z,12.43
2018-04-08T06:15:59.296Z,12.61
2018-04-08T06:18:27.760Z,12.80
2018-04-08T06:20:56.218Z,12.96
2018-04-08T06:23:24.661Z,13.07
2018-04-08T06:25:53.096Z,13.25
2018-04-08T06:28:21.545Z,13.38
2018-04-08T06:30:49.949Z,13.41
2018-04-08T06:33:18.379Z,13.64
2018-04-08T06:35:46.869Z,13.64
2018-04-08T06:38:15.356Z,13.41
2018-04-08T06:40:43.889Z,13.75
2018-04-08T06:43:12.400Z,13.85
2018-04-08T06:45:40.924Z,14.04
2018-04-08T06:48:09.390Z,14.15
2018-04-08T06:50:37.855Z,14.21
2018-04-08T06:53:06.294Z,14.05
2018-04-08T06:55:34.947Z,14.58
2018-04-08T06:58:03.399Z,14.75
2018-04-08T07:00:31.821Z,14.75
2018-04-08T07:03:00.228Z,14.91
2018-04-08T07:05:28.702Z,15.01
2018-04-08T07:07:57.087Z,14.93
2018-04-08T07:10:25.521Z,15.16
2018-04-08T07:12:54.056Z,15.29
2018-04-08T07:15:22.479Z,15.22
2018-04-08T07:17:50.953Z,15.32
2018-04-08T07:20:19.382Z,15.57
2018-04-08T07:22:47.848Z,15.64
2018-04-08T07:25:16.257Z,15.63
2018-04-08T07:27:44.665Z,15.94
2018-04-08T07:30:13.180Z,15.95
2018-04-08T07:32:41.695Z,15.29
2018-04-08T07:35:10.062Z,15.57
2018-04-08T07:37:38.516Z,15.61
2018-04-08T07:40:06.928Z,15.79
2018-04-08T07:42:35.385Z,16.00
2018-04-08T07:45:03.805Z,15.84
2018-04-08T07:47:32.239Z,16.04
2018-04-08T07:50:00.740Z,16.06
2018-04-08T07:52:29.144Z,16.27
2018-04-08T07:54:57.596Z,16.54
2018-04-08T07:57:25.985Z,16.64
2018-04-08T07:59:54.476Z,16.67
2018-04-08T08:02:22.899Z,16.65
2018-04-08T08:04:51.337Z,16.55
2018-04-08T08:07:19.730Z,16.16
2018-04-08T08:09:48.169Z,16.10
2018-04-08T08:12:16.598Z,16.39
2018-04-08T08:14:45.050Z,16.59
2018-04-08T08:17:13.445Z,16.21
2018-04-08T08:19:41.868Z,16.24
2018-04-08T08:22:10.302Z,16.75
2018-04-08T08:24:38.692Z,17.39
2018-04-08T08:27:07.074Z,17.71
2018-04-08T08:29:35.521Z,17.29
2018-04-08T08:32:03.916Z,17.31
2018-04-08T08:34:32.297Z,17.46
2018-04-08T08:37:00.740Z,17.75
2018-04-08T08:39:29.179Z,17.57
2018-04-08T08:41:57.613Z,18.10
2018-04-08T08:44:26.029Z,18.44
2018-04-08T08:46:54.470Z,17.86
2018-04-08T08:49:22.915Z,18.12
2018-04-08T08:51:51.301Z,18.34
2018-04-08T08:54:19.754Z,18.64
2018-04-08T08:56:48.157Z,18.92
2018-04-08T08:59:16.552Z,18.62
2018-04-08T09:01:45.011Z,18.48
2018-04-08T09:04:13.388Z,18.04
2018-04-08T09:06:41.903Z,18.40
2018-04-08T09:09:10.256Z,18.68
2018-04-08T09:11:38.679Z,18.77
2018-04-08T09:14:07.109Z,19.13
2018-04-08T09:16:35.533Z,19.51
2018-04-08T09:19:19.835Z,18.90
2018-04-08T09:21:53.641Z,19.55
2018-04-08T09:24:33.988Z,19.80
2018-04-08T09:27:02.384Z,19.78
2018-04-08T09:29:30.844Z,19.90
2018-04-08T09:31:59.370Z,20.40
2018-04-08T09:34:27.781Z,20.08
2018-04-08T09:36:56.334Z,20.52
2018-04-08T09:39:24.807Z,21.27
2018-04-08T09:41:53.200Z,21.56
2018-04-08T09:44:21.613Z,21.28
2018-04-08T09:46:50.025Z,21.47
2018-04-08T09:49:18.409Z,21.40
2018-04-08T09:51:46.840Z,21.79
2018-04-08T09:54:15.434Z,22.27
2018-04-08T09:56:43.869Z,22.85
2018-04-08T09:59:12.244Z,22.50
2018-04-08T10:01:55.617Z,22.41
2018-04-08T10:04:24.053Z,22.70
2018-04-08T10:06:52.501Z,22.51
2018-04-08T10:09:20.910Z,22.75
2018-04-08T10:11:49.390Z,22.75
2018-04-08T10:14:17.825Z,22.48
2018-04-08T10:16:46.198Z,22.01
2018-04-08T10:19:14.628Z,22.00
2018-04-08T10:21:43.030Z,22.23
2018-04-08T10:24:11.467Z,21.90
2018-04-08T10:26:39.873Z,22.19
2018-04-08T10:29:08.352Z,22.08
2018-04-08T10:31:36.731Z,21.87
2018-04-08T10:34:05.215Z,21.49
2018-04-08T10:36:33.649Z,21.57
2018-04-08T10:39:02.049Z,21.69
2018-04-08T10:41:30.500Z,22.35
2018-04-08T10:43:58.907Z,23.13
2018-04-08T10:46:27.322Z,22.76
2018-04-08T10:48:55.824Z,22.58
2018-04-08T10:51:24.315Z,22.46
2018-04-08T10:53:52.760Z,22.53
2018-04-08T10:56:21.449Z,23.14
2018-04-08T10:58:49.831Z,23.34
2018-04-08T11:01:18.316Z,23.74
2018-04-08T11:03:46.818Z,24.23
2018-04-08T11:06:15.456Z,24.13
2018-04-08T11:08:43.848Z,24.04
2018-04-08T11:11:12.325Z,24.00
2018-04-08T11:13:40.797Z,23.40
2018-04-08T11:16:09.220Z,24.27
2018-04-08T11:18:37.637Z,24.13
2018-04-08T11:21:06.089Z,24.08
2018-04-08T11:23:34.522Z,24.74
2018-04-08T11:26:02.925Z,24.72
2018-04-08T11:28:31.368Z,25.12
2018-04-08T11:30:59.750Z,25.52
2018-04-08T11:33:28.184Z,25.40
2018-04-08T11:35:56.608Z,25.54
2018-04-08T11:38:25.061Z,25.75
2018-04-08T11:40:53.436Z,23.94
2018-04-08T11:43:21.823Z,23.16
2018-04-08T11:45:50.271Z,23.18
2018-04-08T11:48:18.725Z,24.22
2018-04-08T11:50:47.100Z,24.50
2018-04-08T11:53:15.520Z,25.49
2018-04-08T11:55:43.941Z,26.10
2018-04-08T11:58:12.330Z,26.65
2018-04-08T12:00:40.812Z,26.94
2018-04-08T12:03:09.227Z,27.47
2018-04-08T12:05:37.687Z,27.19
2018-04-08T12:08:06.075Z,27.66
2018-04-08T12:10:34.572Z,26.67
2018-04-08T12:13:02.958Z,25.79
2018-04-08T12:15:31.405Z,26.82
2018-04-08T12:17:59.954Z,27.51
2018-04-08T12:20:28.420Z,27.58
2018-04-08T12:22:56.829Z,26.96
2018-04-08T12:25:25.304Z,26.77
2018-04-08T12:27:53.685Z,27.55
2018-04-08T12:30:22.065Z,28.72
2018-04-08T12:32:50.497Z,28.94
2018-04-08T12:35:19.009Z,29.28
2018-04-08T12:37:47.464Z,29.71
2018-04-08T12:40:15.913Z,28.64
2018-04-08T12:42:44.344Z,29.06
2018-04-08T12:45:12.774Z,29.26
2018-04-08T12:47:41.218Z,27.31
2018-04-08T12:50:09.604Z,26.73
2018-04-08T12:52:38.021Z,27.59
2018-04-08T12:55:06.401Z,28.81
2018-04-08T12:57:34.833Z,29.88
2018-04-08T13:00:03.298Z,30.87
2018-04-08T13:02:31.773Z,30.86
2018-04-08T13:05:00.205Z,29.85
2018-04-08T13:07:28.632Z,29.86
2018-04-08T13:09:57.098Z,28.23
2018-04-08T13:12:25.513Z,27.21
2018-04-08T13:14:53.914Z,27.99
2018-04-08T13:17:22.301Z,26.64
2018-04-08T13:19:50.721Z,26.85
2018-04-08T13:22:19.100Z,28.59
2018-04-08T13:24:47.529Z,27.29
2018-04-08T13:27:15.973Z,26.06
2018-04-08T13:29:44.353Z,26.28
2018-04-08T13:32:12.768Z,26.40
2018-04-08T13:34:41.172Z,26.47
2018-04-08T13:37:09.634Z,28.27
2018-04-08T13:39:38.032Z,29.66
2018-04-08T13:42:06.430Z,30.50
2018-04-08T13:44:34.872Z,29.90
2018-04-08T13:47:03.274Z,30.23
2018-04-08T13:49:31.705Z,30.43
2018-04-08T13:52:00.138Z,28.12
2018-04-08T13:54:28.561Z,26.92
2018-04-08T13:56:57.010Z,27.08
2018-04-08T13:59:25.424Z,25.92
2018-04-08T14:01:53.925Z,27.43
2018-04-08T14:04:22.364Z,28.41
2018-04-08T14:06:50.753Z,29.27
2018-04-08T14:09:19.172Z,30.18
2018-04-08T14:11:47.626Z,30.05
2018-04-08T14:14:15.996Z,29.42
2018-04-08T14:16:44.423Z,30.73
2018-04-08T14:19:12.846Z,31.73
2018-04-08T14:21:41.268Z,31.75
2018-04-08T14:24:09.797Z,30.32
2018-04-08T14:26:38.249Z,30.88
2018-04-08T14:29:06.695Z,29.73
2018-04-08T14:31:35.858Z,30.74
2018-04-08T14:34:05.341Z,30.40
2018-04-08T14:36:33.857Z,29.63
2018-04-08T14:39:02.313Z,30.54
2018-04-08T14:41:30.808Z,30.29
2018-04-08T14:43:59.239Z,30.62
2018-04-08T14:46:27.651Z,30.47
2018-04-08T14:48:57.093Z,30.39
2018-04-08T14:51:25.515Z,30.44
2018-04-08T14:53:55.186Z,30.18
2018-04-08T14:56:23.581Z,31.19
2018-04-08T14:58:51.990Z,30.30
2018-04-08T15:01:21.089Z,30.58
2018-04-08T15:03:49.477Z,29.57
2018-04-08T15:06:17.870Z,29.71
2018-04-08T15:08:46.333Z,28.57
2018-04-08T15:11:14.783Z,29.16
2018-04-08T15:13:43.200Z,29.44
2018-04-08T15:16:11.638Z,30.09
2018-04-08T15:18:40.066Z,29.62
2018-04-08T15:21:08.456Z,27.93
2018-04-08T15:23:37.313Z,27.50
2018-04-08T15:26:05.706Z,28.30
2018-04-08T15:28:34.084Z,27.77
2018-04-08T15:31:02.860Z,27.77
2018-04-08T15:33:31.297Z,28.56
2018-04-08T15:35:59.692Z,29.56
2018-04-08T15:38:28.912Z,29.15
2018-04-08T15:40:57.305Z,28.54
2018-04-08T15:43:25.694Z,27.88
2018-04-08T15:45:54.128Z,27.75
2018-04-08T15:48:22.577Z,27.16
2018-04-08T15:50:50.985Z,28.19
2018-04-08T15:53:19.456Z,27.70
2018-04-08T15:55:47.985Z,27.76
2018-04-08T15:58:16.376Z,27.29
2018-04-08T16:00:44.838Z,27.15
2018-04-08T16:03:13.287Z,26.10
2018-04-08T16:05:41.855Z,25.24
2018-04-08T16:08:10.253Z,24.97
2018-04-08T16:10:38.730Z,25.02
2018-04-08T16:13:07.354Z,25.04
2018-04-08T16:15:35.766Z,25.10
2018-04-08T16:18:04.232Z,24.12
2018-04-08T16:20:32.685Z,23.98
2018-04-08T16:23:01.134Z,24.03
2018-04-08T16:25:29.596Z,24.00
2018-04-08T16:27:58.019Z,23.43
2018-04-08T16:30:26.408Z,23.29
2018-04-08T16:32:54.931Z,22.79
2018-04-08T16:35:23.373Z,22.33
2018-04-08T16:37:51.816Z,21.89
2018-04-08T16:40:20.263Z,21.45
2018-04-08T16:42:48.683Z,20.43
2018-04-08T16:45:17.083Z,19.86
2018-04-08T16:47:45.544Z,19.66
2018-04-08T16:50:13.920Z,19.12
2018-04-08T16:52:42.354Z,18.84
2018-04-08T16:55:10.759Z,18.80
2018-04-08T16:57:39.226Z,18.29
2018-04-08T17:00:07.630Z,18.06
2018-04-08T17:02:36.049Z,17.94
2018-04-08T17:05:04.485Z,17.88
2018-04-08T17:07:33.028Z,17.57
2018-04-08T17:10:01.483Z,17.54
2018-04-08T17:12:29.884Z,17.32
2018-04-08T17:14:58.263Z,17.27
2018-04-08T17:17:26.762Z,17.31
2018-04-08T17:19:55.210Z,17.11
2018-04-08T17:22:23.606Z,17.18
2018-04-08T17:24:52.059Z,17.04
2018-04-08T17:27:20.695Z,16.71
2018-04-08T17:29:49.145Z,16.56
2018-04-08T17:32:17.648Z,16.77
2018-04-08T17:34:46.044Z,16.84
2018-04-08T17:37:14.476Z,16.79
2018-04-08T17:39:42.949Z,16.74
2018-04-08T17:42:11.422Z,16.67
2018-04-08T17:44:39.885Z,16.58
2018-04-08T17:47:08.280Z,16.55
2018-04-08T17:49:36.863Z,16.62
2018-04-08T17:52:05.339Z,16.46
2018-04-08T17:54:33.769Z,16.51
2018-04-08T17:57:02.225Z,16.40
2018-04-08T17:59:30.610Z,16.36
2018-04-08T18:01:59.056Z,16.26
2018-04-08T18:04:27.513Z,16.19
2018-04-08T18:06:56.382Z,16.17
2018-04-08T18:09:26.327Z,16.05
2018-04-08T18:11:54.819Z,16.15
2018-04-08T18:14:23.263Z,16.07
2018-04-08T18:16:51.664Z,15.96
2018-04-08T18:19:20.073Z,16.08
2018-04-08T18:21:48.544Z,15.97
2018-04-08T18:24:16.942Z,15.90
2018-04-08T18:26:45.388Z,15.87
2018-04-08T18:29:13.802Z,15.80
2018-04-08T18:31:42.239Z,15.87
2018-04-08T18:34:10.629Z,15.93
2018-04-08T18:36:39.131Z,15.85
2018-04-08T18:39:07.753Z,15.85
2018-04-08T18:41:36.212Z,15.69
2018-04-08T18:44:04.660Z,15.86
2018-04-08T18:46:33.084Z,15.81
2018-04-08T18:49:01.539Z,15.83
2018-04-08T18:51:30.008Z,15.59
2018-04-08T18:53:58.456Z,15.54
2018-04-08T18:56:26.943Z,15.53
2018-04-08T18:58:55.542Z,15.56
2018-04-08T19:01:23.980Z,15.54
2018-04-08T19:03:52.389Z,15.55
2018-04-08T19:06:20.857Z,15.56
2018-04-08T19:08:49.527Z,15.56
2018-04-08T19:11:18.121Z,15.47
2018-04-08T19:13:46.777Z,15.50
2018-04-08T19:16:15.239Z,15.51
2018-04-08T19:18:43.665Z,15.51
2018-04-08T19:21:12.094Z,15.50
2018-04-08T19:23:40.589Z,15.57
2018-04-08T19:26:09.058Z,15.62
2018-04-08T19:28:37.462Z,15.52
2018-04-08T19:31:05.902Z,15.61
2018-04-08T19:33:34.329Z,15.58
2018-04-08T19:36:02.769Z,15.31
2018-04-08T19:38:31.174Z,15.41
2018-04-08T19:40:59.623Z,15.41
2018-04-08T19:43:28.028Z,15.23
2018-04-08T19:45:56.425Z,15.28
2018-04-08T19:48:24.892Z,15.07
2018-04-08T19:50:53.305Z,15.27
2018-04-08T19:53:21.762Z,15.11
2018-04-08T19:55:50.121Z,15.10
2018-04-08T19:58:18.554Z,15.11
2018-04-08T20:00:47.298Z,15.19
2018-04-08T20:03:15.759Z,15.06
2018-04-08T20:05:44.166Z,15.09
2018-04-08T20:08:12.591Z,15.07
2018-04-08T20:10:41.021Z,14.56
2018-04-08T20:13:09.456Z,15.04
2018-04-08T20:15:37.908Z,15.02
2018-04-08T20:18:06.332Z,14.95
2018-04-08T20:20:34.748Z,14.99
2018-04-08T20:23:03.168Z,14.99
2018-04-08T20:25:31.605Z,14.95
2018-04-08T20:28:00.064Z,14.93
2018-04-08T20:30:28.458Z,14.75
2018-04-08T20:32:56.975Z,14.87
2018-04-08T20:35:25.381Z,14.88
2018-04-08T20:37:53.830Z,14.70
2018-04-08T20:40:22.319Z,14.79
2018-04-08T20:42:50.759Z,14.72
2018-04-08T20:45:19.139Z,14.67
2018-04-08T20:47:47.601Z,14.77
2018-04-08T20:50:15.986Z,14.76
2018-04-08T20:52:44.390Z,14.64
2018-04-08T20:55:12.844Z,14.58
2018-04-08T20:57:41.240Z,14.56
2018-04-08T21:00:09.754Z,14.32
2018-04-08T21:02:38.153Z,14.57
2018-04-08T21:05:06.590Z,14.54
2018-04-08T21:07:34.961Z,14.63
2018-04-08T21:10:03.368Z,14.67
2018-04-08T21:12:31.840Z,14.65
2018-04-08T21:15:00.221Z,14.61
2018-04-08T21:17:28.699Z,14.70
2018-04-08T21:19:57.105Z,14.64
2018-04-08T21:22:25.488Z,14.65
2018-04-08T21:24:53.924Z,14.68
2018-04-08T21:27:22.341Z,14.63
2018-04-08T21:29:50.780Z,14.37
2018-04-08T21:32:19.281Z,14.62
2018-04-08T21:34:47.768Z,14.55
2018-04-08T21:37:16.370Z,14.46
2018-04-08T21:39:44.794Z,14.43
2018-04-08T21:42:13.177Z,14.43
2018-04-08T21:44:41.676Z,14.47
2018-04-08T21:47:10.128Z,14.43
2018-04-08T21:49:38.585Z,14.40
2018-04-08T21:52:07.002Z,14.08
2018-04-08T21:54:35.383Z,13.90
2018-04-08T21:57:03.840Z,14.14
2018-04-08T21:59:32.221Z,14.07
2018-04-08T22:02:00.634Z,14.06
2018-04-08T22:04:29.036Z,13.85
2018-04-08T22:06:57.457Z,13.84
2018-04-08T22:09:25.895Z,13.82
2018-04-08T22:11:54.308Z,13.92
2018-04-08T22:14:22.706Z,13.85
2018-04-08T22:16:51.162Z,13.68
2018-04-08T22:19:19.626Z,13.92
2018-04-08T22:21:48.065Z,13.76
2018-04-08T22:24:16.503Z,13.59
2018-04-08T22:26:44.906Z,13.54
2018-04-08T22:29:13.357Z,13.16
2018-04-08T22:31:41.737Z,13.17
2018-04-08T22:34:10.176Z,13.16
2018-04-08T22:36:38.571Z,13.24
2018-04-08T22:39:07.013Z,13.20
2018-04-08T22:41:35.478Z,13.06
2018-04-08T22:44:03.970Z,13.10
2018-04-08T22:46:32.404Z,13.04
2018-04-08T22:49:00.833Z,13.04
2018-04-08T22:51:29.242Z,13.09
2018-04-08T22:53:57.699Z,12.95
2018-04-08T22:56:26.082Z,12.99
2018-04-08T22:58:54.508Z,12.51
2018-04-08T23:01:22.957Z,12.78
2018-04-08T23:03:51.383Z,12.78
2018-04-08T23:06:19.804Z,12.87
2018-04-08T23:08:48.235Z,12.87
2018-04-08T23:11:16.662Z,12.82
2018-04-08T23:13:45.061Z,12.62
2018-04-08T23:16:13.501Z,12.57
2018-04-08T23:18:41.995Z,12.56
2018-04-08T23:21:10.402Z,12.52
2018-04-08T23:23:38.872Z,12.32
2018-04-08T23:26:07.279Z,12.16
2018-04-08T23:28:35.694Z,11.93
2018-04-08T23:31:04.150Z,11.97
2018-04-08T23:33:32.541Z,11.43
2018-04-08T23:36:00.965Z,11.28
2018-04-08T23:38:29.410Z,11.21
2018-04-08T23:40:57.805Z,11.30
2018-04-08T23:43:26.223Z,11.56
2018-04-08T23:45:54.633Z,11.58
2018-04-08T23:48:23.096Z,11.46
2018-04-08T23:50:51.480Z,11.15
2018-04-08T23:53:19.931Z,10.99
2018-04-08T23:55:48.316Z,11.00
2018-04-08T23:58:16.761Z,11.11
